Austin, TX (78746)

21:18 CDT le 29 Mars 2015 (GMT -0500)
Camelot | | Change Station
CLOSE
Current Station
Stations météorologiques personnelles
Location: Austin, TX
Altitude: 925 ft
Stations météo à proximité

Alt. 925 ft 30.29 °N, 97.83 °W | Updated 10 seconds ago

Ciel dégagé
Ciel dégagé
70.8 ° F
Paraît 75 ° F
N
1.0
Vent Variable Vent de SO
Gusts 4.0 mph

Aujourd'hui
Haut(e) -- | Bas -- ° F
--% Risque de précip.
Hier
Haut(e) -- | Bas -- ° F
Precip. -- pouce
7:24 AM 7:48 PM
Lune gibbeuse croissante, 76% visible
Pression 30.04 pouce
Visibilité 10.0 Miles terrestres
Nuages Ciel dégagé
indice de chaleur 75 ° F
Point de rosée 59 ° F
Humidité 67%
Précipitations 0.00 pouce
Profondeur de la couche neigeuse Non disponible.
UV 0 sur 12
Pollen 9.60 sur 12
Qualité de l'air Non disponible.
Flu Activity Non disponible.
METAR KATT 300151Z AUTO 16005KT 10SM CLR 22/13 A3006 RMK AO2 SLP172 T02220133

More Conditions Fewer Conditions

Pression 30.04 pouce
Visibilité 10.0 Miles terrestres
Nuages Ciel dégagé
indice de chaleur 75 ° F
Point de rosée 59 ° F
Humidité 67%
Précipitations 0.00 pouce
Profondeur de la couche neigeuse Non disponible.
UV 0 sur 12
Pollen 9.60 sur 12
Qualité de l'air Non disponible.
Flu Activity Non disponible.
METAR KATT 300151Z AUTO 16005KT 10SM CLR 22/13 A3006 RMK AO2 SLP172 T02220133

More Conditions Fewer Conditions

10-Day Weather Forecast

Almanac

Astronomie

Mar. 29, 2015 Lever Coucher
Temps réel
Crépuscule civil
Crépuscule nautique
Crépuscule astronomique
Lune
Durée de lumière visible
Longueur du jour
Tomorrow will be .
, % of the Moon is Illuminated

Extrêmes aujourd'hui

State Highs State Lows

Community

WunderPhotos

Upload Photos

1,809,411 Photos téléchargées !

WunderBlogs® & News

Nearby

Qualité de l'air

  Qualité de l'air Indice de la qualité de l'air Polluant
Not available.

Épaisseur de neige

Station Depth Altitude

Activité sismique

Ville Distance Mag. Time & Date
Minimum magnitude displayed is 2.5.

Températures des eaux côtières

Lieu Température

Stations

Stations météo à proximité

Emplacement de la station Température Refroidissement éolien Point de rosée Humidité Vent Precip. Alt. Mise à jour Type